Time;durP1;ratioP1;P1;durP2;ratioP2;P2;SDS_P1;SDS_P2;PMS_P1;PMS_P2;Temp;Humidity;BMP_temperature;BMP_pressure;BME280_temperature;BME280_humidity;BME280_pressure;Samples;Min_cycle;Max_cycle;Signal;HPM_P1;HPM_P2
2022/04/10 00:01:44;;;;;;;18.67;2.97;;;;;;;;;;5018502;28;20484;-68
2022/04/10 00:04:09;;;;;;;20.55;2.60;;;;;;;;;;5018767;28;20175;-68
2022/04/10 00:06:35;;;;;;;17.40;3.03;;;;;;;;;;5017732;28;20144;-67
2022/04/10 00:09:00;;;;;;;19.02;2.67;;;;;;;;;;5019249;28;22294;-69
2022/04/10 00:11:27;;;;;;;20.73;2.90;;;;;;;;;;5018711;28;20116;-68
2022/04/10 00:13:52;;;;;;;22.10;2.83;;;;;;;;;;5018805;28;20048;-67
2022/04/10 00:16:22;;;;;;;20.70;2.63;;;;;;;;;;5019361;28;20033;-66
2022/04/10 00:18:48;;;;;;;16.80;2.35;;;;;;;;;;5018711;28;20107;-67
2022/04/10 00:21:14;;;;;;;17.98;3.58;;;;;;;;;;5046577;28;20465;-67
2022/04/10 00:23:39;;;;;;;17.42;2.63;;;;;;;;;;5020327;28;20202;-67
2022/04/10 00:26:05;;;;;;;16.75;2.67;;;;;;;;;;5019688;28;20144;-68
2022/04/10 00:28:31;;;;;;;17.58;2.42;;;;;;;;;;5019483;28;20087;-68
2022/04/10 00:30:56;;;;;;;24.58;3.40;;;;;;;;;;5019255;28;20029;-67
2022/04/10 00:33:22;;;;;;;17.23;3.20;;;;;;;;;;5019628;28;20128;-68
2022/04/10 00:35:48;;;;;;;22.35;3.20;;;;;;;;;;5018639;28;20047;-67
2022/04/10 00:38:13;;;;;;;17.90;2.75;;;;;;;;;;5018925;28;20037;-67
2022/04/10 00:40:39;;;;;;;13.77;2.65;;;;;;;;;;5002124;28;20321;-67
2022/04/10 00:43:05;;;;;;;14.93;2.70;;;;;;;;;;5018372;28;20037;-68
2022/04/10 00:45:31;;;;;;;19.88;2.78;;;;;;;;;;5020073;28;20052;-68
2022/04/10 00:47:57;;;;;;;15.55;2.92;;;;;;;;;;5021641;28;20116;-68
2022/04/10 00:50:25;;;;;;;17.88;2.85;;;;;;;;;;5021846;28;20666;-67
2022/04/10 00:52:50;;;;;;;23.73;2.38;;;;;;;;;;5021673;28;20526;-68
2022/04/10 00:55:16;;;;;;;17.23;2.25;;;;;;;;;;5052778;28;20053;-66
2022/04/10 00:57:43;;;;;;;14.00;2.22;;;;;;;;;;5022391;28;20481;-67
2022/04/10 01:00:10;;;;;;;18.15;2.72;;;;;;;;;;5020749;28;20029;-67
2022/04/10 01:02:39;;;;;;;14.88;2.70;;;;;;;;;;5021283;28;20430;-66
2022/04/10 01:05:05;;;;;;;25.42;2.70;;;;;;;;;;5021318;28;20796;-67
2022/04/10 01:07:31;;;;;;;14.35;1.92;;;;;;;;;;5021351;28;20057;-67
2022/04/10 01:09:56;;;;;;;24.63;2.70;;;;;;;;;;5022568;28;20056;-68
2022/04/10 01:12:27;;;;;;;14.07;2.30;;;;;;;;;;5021515;28;20029;-67
2022/04/10 01:14:54;;;;;;;12.20;2.63;;;;;;;;;;5020630;28;20108;-67
2022/04/10 01:17:22;;;;;;;16.10;2.72;;;;;;;;;;5021990;28;20127;-67
2022/04/10 01:19:50;;;;;;;17.48;2.83;;;;;;;;;;5021544;28;20063;-67
2022/04/10 01:22:34;;;;;;;18.02;2.58;;;;;;;;;;5023115;28;20037;-67
2022/04/10 01:25:02;;;;;;;14.70;2.35;;;;;;;;;;5020357;28;20590;-67
2022/04/10 01:27:29;;;;;;;22.05;2.83;;;;;;;;;;5020386;28;20033;-67
2022/04/10 01:30:00;;;;;;;14.32;2.25;;;;;;;;;;5024416;28;20505;-68
2022/04/10 01:32:25;;;;;;;16.60;2.40;;;;;;;;;;5021620;28;20032;-68
2022/04/10 01:34:55;;;;;;;13.93;1.90;;;;;;;;;;5021548;28;20067;-67
2022/04/10 01:37:21;;;;;;;14.90;2.58;;;;;;;;;;5019686;28;20547;-68
2022/04/10 01:39:46;;;;;;;20.67;3.25;;;;;;;;;;5020458;28;20028;-67
2022/04/10 01:42:12;;;;;;;20.05;2.33;;;;;;;;;;5021005;28;20128;-68
2022/04/10 01:44:44;;;;;;;19.38;2.60;;;;;;;;;;5021361;28;20033;-67
2022/04/10 01:47:10;;;;;;;19.50;2.72;;;;;;;;;;5055205;28;20040;-75
2022/04/10 01:49:37;;;;;;;17.25;2.25;;;;;;;;;;5023432;28;20051;-75
2022/04/10 01:52:05;;;;;;;14.63;2.40;;;;;;;;;;5022272;28;20274;-74
2022/04/10 01:54:31;;;;;;;16.10;2.50;;;;;;;;;;5021672;28;20076;-74
2022/04/10 01:56:56;;;;;;;27.67;2.88;;;;;;;;;;5021795;28;20120;-74
2022/04/10 01:59:23;;;;;;;20.60;2.60;;;;;;;;;;5020638;28;20052;-74
2022/04/10 02:01:48;;;;;;;15.18;2.00;;;;;;;;;;5022269;28;20043;-75
2022/04/10 02:04:14;;;;;;;17.73;2.78;;;;;;;;;;5020381;28;20477;-74
2022/04/10 02:06:42;;;;;;;19.02;2.42;;;;;;;;;;5018756;28;20465;-74
2022/04/10 02:09:08;;;;;;;19.17;2.50;;;;;;;;;;5021381;28;20044;-73
2022/04/10 02:11:33;;;;;;;16.05;2.65;;;;;;;;;;5020348;28;20032;-75
2022/04/10 02:13:59;;;;;;;10.98;1.83;;;;;;;;;;5023430;28;20035;-75
2022/04/10 02:16:25;;;;;;;17.92;2.67;;;;;;;;;;5019438;28;20043;-75
2022/04/10 02:18:50;;;;;;;16.33;2.40;;;;;;;;;;5050696;28;20093;-74
2022/04/10 02:21:19;;;;;;;15.90;2.08;;;;;;;;;;5022042;28;20226;-74
2022/04/10 02:23:44;;;;;;;14.63;2.10;;;;;;;;;;5005836;28;20503;-75
2022/04/10 02:26:10;;;;;;;18.25;2.90;;;;;;;;;;5020252;28;20017;-75
2022/04/10 02:28:36;;;;;;;15.63;2.70;;;;;;;;;;5021367;28;20029;-74
2022/04/10 02:31:04;;;;;;;15.85;3.63;;;;;;;;;;5019262;28;20030;-75
2022/04/10 02:33:32;;;;;;;14.43;2.92;;;;;;;;;;5019896;28;20083;-75
2022/04/10 02:36:00;;;;;;;16.70;2.97;;;;;;;;;;5017696;28;20499;-75
2022/04/10 02:38:25;;;;;;;24.58;3.17;;;;;;;;;;5020378;28;20029;-74
2022/04/10 02:40:51;;;;;;;18.10;2.65;;;;;;;;;;5019545;28;20173;-74
2022/04/10 02:43:16;;;;;;;15.32;2.92;;;;;;;;;;5018606;28;20407;-72
2022/04/10 02:45:44;;;;;;;15.13;2.05;;;;;;;;;;5022349;28;20036;-74
2022/04/10 02:48:10;;;;;;;14.27;2.22;;;;;;;;;;5021326;28;20091;-73
2022/04/10 02:50:36;;;;;;;18.02;2.28;;;;;;;;;;5021222;28;20024;-74
2022/04/10 02:53:03;;;;;;;18.33;2.47;;;;;;;;;;5021397;28;20029;-74
2022/04/10 02:55:28;;;;;;;20.38;2.83;;;;;;;;;;5040326;28;20028;-74
2022/04/10 02:57:54;;;;;;;11.13;2.30;;;;;;;;;;5019997;28;20656;-75
2022/04/10 03:00:22;;;;;;;17.80;2.25;;;;;;;;;;5020210;28;20033;-73
2022/04/10 03:02:48;;;;;;;17.35;2.85;;;;;;;;;;5021223;28;20114;-75
2022/04/10 03:05:16;;;;;;;12.50;2.17;;;;;;;;;;5016947;28;20044;-74
2022/04/10 03:07:42;;;;;;;14.52;2.20;;;;;;;;;;5020362;28;20496;-74
2022/04/10 03:10:08;;;;;;;19.50;2.65;;;;;;;;;;5019609;28;20029;-74
2022/04/10 03:12:34;;;;;;;16.58;2.67;;;;;;;;;;5020130;28;20071;-74
2022/04/10 03:14:59;;;;;;;15.10;2.33;;;;;;;;;;5019960;28;20588;-74
2022/04/10 03:17:24;;;;;;;20.80;3.40;;;;;;;;;;5019784;28;20626;-74
2022/04/10 03:19:50;;;;;;;15.05;2.50;;;;;;;;;;5020806;28;20329;-76
2022/04/10 03:22:16;;;;;;;18.85;2.20;;;;;;;;;;5019537;28;20068;-75
2022/04/10 03:24:41;;;;;;;25.25;3.15;;;;;;;;;;5017779;28;20040;-75
2022/04/10 03:27:07;;;;;;;16.30;2.10;;;;;;;;;;5019436;28;21872;-76
2022/04/10 03:29:32;;;;;;;19.13;2.60;;;;;;;;;;5017384;28;20087;-75
2022/04/10 03:31:57;;;;;;;19.55;2.85;;;;;;;;;;5018423;28;20502;-75
2022/04/10 03:34:23;;;;;;;24.92;2.42;;;;;;;;;;5018827;28;20041;-74
2022/04/10 03:36:49;;;;;;;14.73;1.80;;;;;;;;;;5022588;28;20043;-75
2022/04/10 03:39:14;;;;;;;16.25;2.67;;;;;;;;;;5020209;28;20029;-75
2022/04/10 03:41:40;;;;;;;15.93;2.65;;;;;;;;;;5019821;28;20053;-75
2022/04/10 03:44:06;;;;;;;11.52;1.67;;;;;;;;;;5019027;28;20041;-75
2022/04/10 03:46:31;;;;;;;15.05;2.22;;;;;;;;;;5017503;28;20056;-75
2022/04/10 03:48:56;;;;;;;14.85;2.67;;;;;;;;;;5050273;28;20174;-74
2022/04/10 03:51:24;;;;;;;19.77;2.53;;;;;;;;;;5018386;28;20038;-75
2022/04/10 03:53:50;;;;;;;15.45;1.85;;;;;;;;;;5018993;28;20032;-74
2022/04/10 03:56:16;;;;;;;13.80;2.08;;;;;;;;;;5018373;28;20033;-75
2022/04/10 03:58:41;;;;;;;15.23;2.38;;;;;;;;;;5021336;28;20032;-75
2022/04/10 04:01:07;;;;;;;13.50;2.30;;;;;;;;;;5019661;28;21920;-74
2022/04/10 04:03:34;;;;;;;14.70;2.22;;;;;;;;;;5017670;28;20493;-74
2022/04/10 04:05:59;;;;;;;13.20;2.60;;;;;;;;;;5023617;28;20033;-74
2022/04/10 04:08:25;;;;;;;13.27;1.75;;;;;;;;;;5020067;28;20045;-74
2022/04/10 04:10:51;;;;;;;19.02;3.28;;;;;;;;;;5022538;28;20127;-74
2022/04/10 04:13:17;;;;;;;14.13;2.35;;;;;;;;;;5022995;28;20039;-74
2022/04/10 04:15:42;;;;;;;10.80;2.13;;;;;;;;;;5019881;28;20465;-74
2022/04/10 04:18:08;;;;;;;10.60;2.10;;;;;;;;;;5049844;28;20044;-75
2022/04/10 04:20:33;;;;;;;24.13;2.35;;;;;;;;;;5021052;28;20040;-74
2022/04/10 04:22:59;;;;;;;18.77;2.15;;;;;;;;;;5039291;28;20825;-75
2022/04/10 04:25:27;;;;;;;18.50;2.53;;;;;;;;;;5024794;28;20155;-75
2022/04/10 04:27:52;;;;;;;13.45;1.80;;;;;;;;;;5022249;28;20108;-74
2022/04/10 04:30:18;;;;;;;13.23;2.35;;;;;;;;;;5023693;28;20470;-73
2022/04/10 04:32:43;;;;;;;17.45;2.35;;;;;;;;;;5021117;28;20124;-74
2022/04/10 04:35:14;;;;;;;20.35;2.80;;;;;;;;;;5054294;28;20412;-74
2022/04/10 04:37:42;;;;;;;18.83;2.33;;;;;;;;;;5022244;28;20029;-75
2022/04/10 04:40:09;;;;;;;13.65;2.28;;;;;;;;;;5022355;28;20380;-74
2022/04/10 04:42:34;;;;;;;20.75;2.38;;;;;;;;;;5022075;28;20039;-76
2022/04/10 04:45:03;;;;;;;21.52;2.33;;;;;;;;;;5022042;28;20075;-75
2022/04/10 04:47:28;;;;;;;16.77;2.53;;;;;;;;;;5020787;28;20120;-75
2022/04/10 04:49:56;;;;;;;14.20;2.72;;;;;;;;;;5023489;28;20155;-74
2022/04/10 04:52:21;;;;;;;19.73;2.90;;;;;;;;;;5020947;28;20177;-75
2022/04/10 04:54:47;;;;;;;19.55;2.50;;;;;;;;;;5049529;28;20513;-77
2022/04/10 04:57:13;;;;;;;16.58;2.00;;;;;;;;;;5024112;28;20052;-75
2022/04/10 04:59:38;;;;;;;12.63;2.42;;;;;;;;;;5022813;28;20139;-76
2022/04/10 05:02:04;;;;;;;13.75;2.25;;;;;;;;;;5023571;28;20039;-76
2022/04/10 05:04:29;;;;;;;10.80;1.95;;;;;;;;;;5022406;28;20058;-74
2022/04/10 05:06:55;;;;;;;11.05;2.42;;;;;;;;;;5019822;28;20040;-75
2022/04/10 05:09:21;;;;;;;12.18;1.80;;;;;;;;;;5023289;28;20029;-75
2022/04/10 05:11:46;;;;;;;12.55;2.65;;;;;;;;;;5021800;28;20032;-75
2022/04/10 05:14:12;;;;;;;16.52;2.25;;;;;;;;;;5052676;28;20062;-75
2022/04/10 05:16:40;;;;;;;10.90;2.03;;;;;;;;;;5021578;28;20119;-76
2022/04/10 05:19:05;;;;;;;13.68;2.20;;;;;;;;;;5046812;28;20033;-76
2022/04/10 05:21:31;;;;;;;17.13;2.72;;;;;;;;;;5019791;28;20045;-75
2022/04/10 05:23:56;;;;;;;12.68;2.10;;;;;;;;;;5018725;28;20469;-76
2022/04/10 05:26:24;;;;;;;8.30;1.30;;;;;;;;;;5018683;28;20029;-76
2022/04/10 05:28:49;;;;;;;8.73;1.10;;;;;;;;;;5018659;28;20067;-75
2022/04/10 05:31:14;;;;;;;13.40;2.15;;;;;;;;;;5017710;28;20043;-73
2022/04/10 05:33:42;;;;;;;16.00;2.33;;;;;;;;;;5033768;28;20949;-74
2022/04/10 05:36:13;;;;;;;15.15;2.20;;;;;;;;;;5019002;28;20270;-75
2022/04/10 05:38:38;;;;;;;8.02;1.80;;;;;;;;;;5017903;28;20518;-75
2022/04/10 05:41:06;;;;;;;12.68;1.90;;;;;;;;;;5018977;28;20039;-76
2022/04/10 05:43:32;;;;;;;12.82;2.08;;;;;;;;;;5000108;28;20040;-75
2022/04/10 05:45:57;;;;;;;12.55;2.30;;;;;;;;;;5018740;28;20400;-76
2022/04/10 05:48:23;;;;;;;14.25;2.33;;;;;;;;;;5018027;28;20087;-75
2022/04/10 05:50:48;;;;;;;18.98;2.42;;;;;;;;;;5017183;28;20044;-75
2022/04/10 05:53:13;;;;;;;17.15;2.15;;;;;;;;;;5018384;28;20039;-76
2022/04/10 05:55:38;;;;;;;12.48;2.40;;;;;;;;;;5048676;28;20037;-76
2022/04/10 05:58:04;;;;;;;17.15;2.35;;;;;;;;;;5018151;28;20467;-76
2022/04/10 06:00:30;;;;;;;12.82;2.47;;;;;;;;;;5018090;28;20264;-74
2022/04/10 06:03:00;;;;;;;13.05;2.03;;;;;;;;;;5015951;28;20087;-75
2022/04/10 06:05:25;;;;;;;20.35;2.38;;;;;;;;;;5018161;28;20118;-74
2022/04/10 06:07:51;;;;;;;10.35;1.67;;;;;;;;;;5021941;28;20718;-74
2022/04/10 06:10:17;;;;;;;7.55;1.58;;;;;;;;;;5018821;28;20041;-76
2022/04/10 06:12:42;;;;;;;11.13;1.90;;;;;;;;;;5020104;28;20504;-74
2022/04/10 06:15:08;;;;;;;14.00;2.58;;;;;;;;;;5017094;28;20196;-74
2022/04/10 06:17:34;;;;;;;15.35;2.53;;;;;;;;;;5002463;28;20033;-77
2022/04/10 06:19:59;;;;;;;12.25;1.98;;;;;;;;;;5048665;28;20037;-76
2022/04/10 06:22:25;;;;;;;15.13;2.17;;;;;;;;;;5016668;28;20033;-76
2022/04/10 06:24:51;;;;;;;13.88;2.47;;;;;;;;;;5017068;28;20489;-74
2022/04/10 06:27:16;;;;;;;16.08;2.25;;;;;;;;;;5048597;28;20147;-75
2022/04/10 06:29:42;;;;;;;12.20;2.15;;;;;;;;;;5017008;28;20126;-74
2022/04/10 06:32:08;;;;;;;11.90;2.10;;;;;;;;;;5018196;28;20075;-75
2022/04/10 06:34:33;;;;;;;17.88;2.30;;;;;;;;;;5017295;28;20067;-75
2022/04/10 06:37:00;;;;;;;14.32;2.63;;;;;;;;;;5020967;28;20023;-76
2022/04/10 06:39:25;;;;;;;16.58;2.80;;;;;;;;;;5018853;28;20024;-74
2022/04/10 06:41:51;;;;;;;15.30;1.80;;;;;;;;;;5017479;28;20184;-74
2022/04/10 06:44:17;;;;;;;15.65;2.40;;;;;;;;;;5017740;28;20348;-75
2022/04/10 06:46:45;;;;;;;12.68;2.60;;;;;;;;;;5017416;28;20473;-74
2022/04/10 06:49:12;;;;;;;15.80;2.60;;;;;;;;;;5017334;28;20238;-75
2022/04/10 06:51:39;;;;;;;16.58;2.55;;;;;;;;;;5017526;28;20787;-74
2022/04/10 06:54:05;;;;;;;21.88;3.03;;;;;;;;;;5018543;28;20025;-75
2022/04/10 06:56:30;;;;;;;15.63;2.45;;;;;;;;;;5017357;28;20099;-76
2022/04/10 06:58:56;;;;;;;7.47;1.92;;;;;;;;;;5018201;28;20047;-75
2022/04/10 07:01:21;;;;;;;23.02;2.80;;;;;;;;;;5015005;28;20351;-76
2022/04/10 07:03:47;;;;;;;16.15;2.33;;;;;;;;;;5017676;28;20037;-76
2022/04/10 07:06:12;;;;;;;19.17;2.30;;;;;;;;;;5017039;28;20255;-75
2022/04/10 07:08:37;;;;;;;16.67;2.42;;;;;;;;;;5018330;28;20107;-75
2022/04/10 07:11:03;;;;;;;11.52;2.00;;;;;;;;;;5016952;28;20033;-75
2022/04/10 07:13:30;;;;;;;18.30;2.58;;;;;;;;;;5016242;28;20290;-75
2022/04/10 07:15:56;;;;;;;11.85;2.05;;;;;;;;;;5014587;28;20037;-75
2022/04/10 07:18:22;;;;;;;9.68;1.83;;;;;;;;;;5048930;28;20033;-76
2022/04/10 07:20:47;;;;;;;13.40;2.35;;;;;;;;;;5016515;28;20043;-75
2022/04/10 07:25:57;;;;;;;9.25;1.70;;;;;;;;;;5017357;28;20487;-75
2022/04/10 07:28:22;;;;;;;13.60;2.15;;;;;;;;;;5020364;28;22015;-73
2022/04/10 07:30:50;;;;;;;14.07;2.22;;;;;;;;;;5017253;28;20087;-74
2022/04/10 07:33:15;;;;;;;11.48;2.50;;;;;;;;;;5020722;28;20061;-75
2022/04/10 07:35:43;;;;;;;13.30;2.00;;;;;;;;;;5048153;28;20133;-75
2022/04/10 07:38:10;;;;;;;14.07;2.13;;;;;;;;;;5019172;28;20045;-75
2022/04/10 07:40:36;;;;;;;10.40;2.40;;;;;;;;;;5016893;28;20024;-73
2022/04/10 07:43:02;;;;;;;12.43;2.20;;;;;;;;;;5016952;28;20047;-73
2022/04/10 07:48:12;;;;;;;10.75;1.85;;;;;;;;;;5016093;28;20646;-74
2022/04/10 07:50:38;;;;;;;17.35;2.35;;;;;;;;;;5019394;28;20043;-75
2022/04/10 07:53:05;;;;;;;15.15;2.00;;;;;;;;;;5015612;28;20029;-73
2022/04/10 07:55:31;;;;;;;11.55;1.90;;;;;;;;;;5028133;28;20580;-74
2022/04/10 07:58:02;;;;;;;10.32;2.13;;;;;;;;;;5025096;28;20032;-74
2022/04/10 08:00:32;;;;;;;11.07;1.67;;;;;;;;;;5020853;28;20132;-73
2022/04/10 08:02:57;;;;;;;11.43;1.77;;;;;;;;;;5004268;28;20037;-73
2022/04/10 08:05:23;;;;;;;10.98;2.00;;;;;;;;;;5022972;28;20418;-73
2022/04/10 08:07:48;;;;;;;10.27;1.73;;;;;;;;;;5020362;28;20097;-73
2022/04/10 08:10:14;;;;;;;10.90;1.85;;;;;;;;;;5024439;28;20281;-73
2022/04/10 08:12:42;;;;;;;11.85;2.05;;;;;;;;;;5024278;28;20522;-75
2022/04/10 08:15:08;;;;;;;7.25;1.55;;;;;;;;;;5020733;28;20330;-73
2022/04/10 08:17:34;;;;;;;11.98;2.13;;;;;;;;;;5023080;28;20603;-73
2022/04/10 08:20:04;;;;;;;10.32;1.90;;;;;;;;;;5021013;28;20409;-74
2022/04/10 08:22:30;;;;;;;14.45;1.88;;;;;;;;;;5020527;28;20369;-74
2022/04/10 08:24:59;;;;;;;14.15;2.00;;;;;;;;;;5020564;28;20039;-73
2022/04/10 08:27:26;;;;;;;12.75;1.92;;;;;;;;;;5021541;28;20036;-75
2022/04/10 08:29:51;;;;;;;10.25;1.75;;;;;;;;;;5021227;28;20044;-74
2022/04/10 08:32:17;;;;;;;17.17;1.80;;;;;;;;;;5022942;28;20111;-73
2022/04/10 08:34:42;;;;;;;8.32;1.65;;;;;;;;;;5023264;28;20535;-73
2022/04/10 08:37:08;;;;;;;9.90;2.08;;;;;;;;;;5021255;28;20032;-73
2022/04/10 08:39:34;;;;;;;11.30;2.53;;;;;;;;;;5021879;28;20037;-75
2022/04/10 08:42:01;;;;;;;10.25;1.70;;;;;;;;;;5019828;28;20029;-75
2022/04/10 08:44:27;;;;;;;9.55;1.80;;;;;;;;;;5020768;28;20113;-75
2022/04/10 08:46:53;;;;;;;10.02;1.45;;;;;;;;;;5004853;28;21983;-73
2022/04/10 08:49:19;;;;;;;9.05;1.60;;;;;;;;;;5019350;28;20033;-74
2022/04/10 08:51:45;;;;;;;9.68;1.40;;;;;;;;;;5020345;28;20197;-74
2022/04/10 08:54:12;;;;;;;8.43;1.75;;;;;;;;;;5019235;28;20391;-73
2022/04/10 08:56:38;;;;;;;10.02;1.80;;;;;;;;;;5021044;28;20032;-73
2022/04/10 08:59:03;;;;;;;7.93;1.65;;;;;;;;;;5019967;28;20026;-73
2022/04/10 09:01:29;;;;;;;12.60;1.80;;;;;;;;;;5020963;28;20199;-76
2022/04/10 09:03:55;;;;;;;6.07;1.30;;;;;;;;;;5022271;28;20035;-73
2022/04/10 09:06:20;;;;;;;7.07;1.40;;;;;;;;;;5018292;28;20029;-74
2022/04/10 09:08:46;;;;;;;10.20;2.05;;;;;;;;;;5021066;28;20597;-74
2022/04/10 09:11:12;;;;;;;7.72;1.60;;;;;;;;;;5022411;28;20112;-74
2022/04/10 09:13:40;;;;;;;5.57;1.33;;;;;;;;;;5051560;28;20516;-74
2022/04/10 09:16:19;;;;;;;7.05;1.40;;;;;;;;;;5023018;28;20637;-73
2022/04/10 09:18:44;;;;;;;7.97;1.67;;;;;;;;;;5022692;28;20025;-72
2022/04/10 09:21:09;;;;;;;18.70;1.80;;;;;;;;;;5021273;28;20054;-73
2022/04/10 09:23:35;;;;;;;5.53;1.33;;;;;;;;;;5022450;28;20623;-74
2022/04/10 09:26:01;;;;;;;8.80;1.48;;;;;;;;;;5019493;28;20335;-73
2022/04/10 09:28:56;;;;;;;8.73;1.50;;;;;;;;;;5019160;28;20090;-73
2022/04/10 09:31:25;;;;;;;11.07;1.95;;;;;;;;;;5016648;28;20041;-73
2022/04/10 09:33:51;;;;;;;9.07;1.50;;;;;;;;;;5036524;28;20087;-74
2022/04/10 09:36:29;;;;;;;10.18;1.98;;;;;;;;;;5022619;28;20089;-73
2022/04/10 09:38:58;;;;;;;10.77;1.90;;;;;;;;;;5019607;28;20040;-74
2022/04/10 09:41:23;;;;;;;9.65;1.70;;;;;;;;;;5023658;28;20029;-73
2022/04/10 09:43:49;;;;;;;16.08;1.83;;;;;;;;;;5026880;28;20533;-74
2022/04/10 09:46:17;;;;;;;9.15;1.42;;;;;;;;;;5019119;28;20159;-74
2022/04/10 09:48:42;;;;;;;7.88;1.42;;;;;;;;;;5023499;28;20099;-73
2022/04/10 09:51:13;;;;;;;8.98;1.40;;;;;;;;;;5019641;28;20057;-73
2022/04/10 09:53:41;;;;;;;10.40;1.83;;;;;;;;;;5023024;28;20024;-72
2022/04/10 09:56:07;;;;;;;7.30;1.30;;;;;;;;;;5029823;28;20036;-72
2022/04/10 09:58:33;;;;;;;6.43;1.02;;;;;;;;;;5020992;28;20029;-72
2022/04/10 10:00:59;;;;;;;7.05;1.13;;;;;;;;;;5018391;28;20495;-74
2022/04/10 10:03:28;;;;;;;6.32;1.20;;;;;;;;;;5039666;28;20082;-73
2022/04/10 10:05:57;;;;;;;11.18;1.70;;;;;;;;;;5020261;28;20155;-73
2022/04/10 10:08:23;;;;;;;11.70;1.30;;;;;;;;;;5018810;28;20233;-72
2022/04/10 10:10:48;;;;;;;7.32;1.42;;;;;;;;;;5019897;28;20042;-72
2022/04/10 10:13:14;;;;;;;7.03;1.67;;;;;;;;;;5018955;28;20041;-72
2022/04/10 10:15:40;;;;;;;6.55;1.60;;;;;;;;;;5019107;28;20067;-73
2022/04/10 10:18:09;;;;;;;14.55;1.83;;;;;;;;;;5020610;28;20097;-73
2022/04/10 10:20:38;;;;;;;12.25;1.70;;;;;;;;;;5020258;28;20385;-72
2022/04/10 10:23:07;;;;;;;6.00;1.25;;;;;;;;;;5019459;28;20072;-72
2022/04/10 10:25:47;;;;;;;11.27;1.70;;;;;;;;;;5022629;28;20039;-72
2022/04/10 10:28:32;;;;;;;5.97;1.37;;;;;;;;;;5017588;28;20366;-72
2022/04/10 10:31:11;;;;;;;9.93;1.67;;;;;;;;;;5018697;28;22125;-73
2022/04/10 10:33:40;;;;;;;10.25;1.50;;;;;;;;;;5027584;28;20048;-72
2022/04/10 10:36:07;;;;;;;13.35;1.58;;;;;;;;;;5017315;28;20056;-72
2022/04/10 10:38:33;;;;;;;7.07;1.60;;;;;;;;;;5018379;28;20057;-72
2022/04/10 10:41:09;;;;;;;8.95;1.70;;;;;;;;;;5018073;28;20463;-72
2022/04/10 10:43:35;;;;;;;6.30;1.40;;;;;;;;;;5018352;28;20447;-74
2022/04/10 10:46:00;;;;;;;7.85;1.38;;;;;;;;;;5018683;28;20285;-72
2022/04/10 10:48:29;;;;;;;8.27;1.48;;;;;;;;;;5034576;28;20115;-72
2022/04/10 10:50:54;;;;;;;7.20;1.50;;;;;;;;;;5019380;28;20030;-72
2022/04/10 10:53:44;;;;;;;7.63;2.00;;;;;;;;;;5025834;28;20067;-72
2022/04/10 10:56:27;;;;;;;6.47;1.20;;;;;;;;;;5018387;28;20116;-74
2022/04/10 10:58:57;;;;;;;8.25;1.25;;;;;;;;;;5017505;28;20043;-73
2022/04/10 11:01:28;;;;;;;8.45;1.65;;;;;;;;;;5017760;28;20025;-73
2022/04/10 11:04:00;;;;;;;8.27;1.80;;;;;;;;;;5018266;28;20036;-74
2022/04/10 11:06:28;;;;;;;8.10;1.60;;;;;;;;;;5020352;28;20638;-73
2022/04/10 11:09:14;;;;;;;8.77;1.63;;;;;;;;;;5015101;28;20305;-75
2022/04/10 11:11:40;;;;;;;5.18;1.40;;;;;;;;;;5017347;28;20192;-74
2022/04/10 11:14:07;;;;;;;9.63;1.83;;;;;;;;;;5019089;28;20252;-75
2022/04/10 11:16:40;;;;;;;6.57;1.20;;;;;;;;;;5026759;28;20033;-76
2022/04/10 11:19:06;;;;;;;6.93;1.40;;;;;;;;;;5018016;28;20042;-74
2022/04/10 11:21:35;;;;;;;8.27;1.30;;;;;;;;;;5018049;28;20037;-75
2022/04/10 11:24:01;;;;;;;5.60;1.40;;;;;;;;;;5048685;28;21051;-73
2022/04/10 11:26:33;;;;;;;9.25;1.52;;;;;;;;;;5020398;28;20265;-73
2022/04/10 11:29:06;;;;;;;8.30;1.42;;;;;;;;;;5018729;28;20877;-73
2022/04/10 11:31:40;;;;;;;10.32;1.38;;;;;;;;;;5016915;28;20490;-75
2022/04/10 11:34:07;;;;;;;7.65;1.20;;;;;;;;;;5017766;28;20064;-74
2022/04/10 11:36:53;;;;;;;6.50;1.42;;;;;;;;;;5048225;28;20175;-75
2022/04/10 11:39:22;;;;;;;8.02;1.50;;;;;;;;;;5016635;28;20045;-74
2022/04/10 11:41:48;;;;;;;8.38;1.52;;;;;;;;;;5019260;28;20028;-75
2022/04/10 11:44:19;;;;;;;9.02;1.58;;;;;;;;;;5017788;28;20411;-74
2022/04/10 11:46:48;;;;;;;11.32;1.70;;;;;;;;;;5017891;28;20206;-76
2022/04/10 11:49:19;;;;;;;8.25;1.50;;;;;;;;;;5019680;28;20056;-74
2022/04/10 11:51:54;;;;;;;7.57;1.40;;;;;;;;;;5025824;28;20033;-76
2022/04/10 11:54:31;;;;;;;7.85;1.40;;;;;;;;;;5014704;28;20111;-76
2022/04/10 11:56:58;;;;;;;5.25;1.35;;;;;;;;;;5019790;28;20475;-76
2022/04/10 11:59:23;;;;;;;8.25;1.48;;;;;;;;;;5016081;28;20021;-74
2022/04/10 12:01:51;;;;;;;6.55;1.50;;;;;;;;;;5019098;28;20035;-75
2022/04/10 12:04:20;;;;;;;9.45;1.50;;;;;;;;;;5016305;28;21956;-73
2022/04/10 12:06:46;;;;;;;9.30;1.42;;;;;;;;;;5015888;28;20041;-74
2022/04/10 12:09:11;;;;;;;8.75;1.35;;;;;;;;;;5018374;28;20065;-74
2022/04/10 12:11:38;;;;;;;8.23;1.60;;;;;;;;;;5016717;28;20545;-75
2022/04/10 12:14:22;;;;;;;9.02;1.30;;;;;;;;;;5017666;28;20036;-75
2022/04/10 12:16:51;;;;;;;8.77;1.65;;;;;;;;;;5018036;28;20031;-75
2022/04/10 12:19:27;;;;;;;8.63;1.80;;;;;;;;;;5048078;28;20021;-75
2022/04/10 12:21:52;;;;;;;6.35;1.42;;;;;;;;;;5017459;28;20054;-75
2022/04/10 12:24:20;;;;;;;6.75;1.40;;;;;;;;;;5017537;28;20036;-74
2022/04/10 12:26:45;;;;;;;6.22;1.40;;;;;;;;;;5018489;28;20674;-74
2022/04/10 12:29:11;;;;;;;7.55;1.60;;;;;;;;;;5017377;28;20040;-74
2022/04/10 12:31:37;;;;;;;7.97;1.42;;;;;;;;;;5017528;28;20034;-74
2022/04/10 12:34:03;;;;;;;7.53;1.35;;;;;;;;;;5019217;28;20025;-74
2022/04/10 12:36:28;;;;;;;9.02;1.63;;;;;;;;;;5018601;28;20113;-74
2022/04/10 12:38:54;;;;;;;7.35;1.48;;;;;;;;;;5017017;28;20084;-74
2022/04/10 12:41:26;;;;;;;6.28;1.52;;;;;;;;;;5018178;28;20040;-74
2022/04/10 12:43:52;;;;;;;;;;;;;;;;;;5040462;28;20087;-74
2022/04/10 12:46:17;;;;;;;9.48;1.77;;;;;;;;;;5021354;28;20516;-73
2022/04/10 12:48:43;;;;;;;8.25;1.63;;;;;;;;;;5019831;28;20029;-74
2022/04/10 12:51:09;;;;;;;6.97;1.20;;;;;;;;;;5004831;28;20034;-73
2022/04/10 12:53:35;;;;;;;6.75;1.48;;;;;;;;;;5021711;28;20029;-73
2022/04/10 12:56:01;;;;;;;8.68;1.90;;;;;;;;;;5021642;28;20025;-74
2022/04/10 12:58:30;;;;;;;9.18;1.67;;;;;;;;;;5020749;28;20036;-74
2022/04/10 13:01:01;;;;;;;8.20;1.75;;;;;;;;;;5019645;28;20060;-74
2022/04/10 13:03:28;;;;;;;9.88;1.50;;;;;;;;;;5018266;28;20052;-73
2022/04/10 13:06:00;;;;;;;10.00;1.50;;;;;;;;;;5018224;28;20114;-74
2022/04/10 13:08:30;;;;;;;7.00;1.23;;;;;;;;;;5018800;28;20086;-74
2022/04/10 13:10:56;;;;;;;7.75;1.60;;;;;;;;;;5018002;28;20592;-75
2022/04/10 13:13:22;;;;;;;7.45;1.58;;;;;;;;;;5049644;28;20040;-75
2022/04/10 13:15:48;;;;;;;5.78;1.25;;;;;;;;;;5017690;28;20033;-75
2022/04/10 13:18:14;;;;;;;7.18;1.35;;;;;;;;;;5019266;28;20029;-75
2022/04/10 13:20:42;;;;;;;9.98;1.20;;;;;;;;;;5019722;28;20029;-74
2022/04/10 13:23:09;;;;;;;3.63;1.20;;;;;;;;;;5017705;28;20421;-74
2022/04/10 13:25:37;;;;;;;5.45;1.10;;;;;;;;;;5034847;28;20098;-76
2022/04/10 13:28:04;;;;;;;5.38;1.40;;;;;;;;;;5021526;28;20805;-75
2022/04/10 13:30:32;;;;;;;10.23;1.65;;;;;;;;;;5018678;28;20033;-74
2022/04/10 13:32:59;;;;;;;7.57;1.40;;;;;;;;;;5027583;28;20454;-74
2022/04/10 13:35:24;;;;;;;4.80;1.20;;;;;;;;;;5038633;28;20030;-73
2022/04/10 13:37:50;;;;;;;11.50;1.70;;;;;;;;;;5018100;28;20146;-74
2022/04/10 13:40:16;;;;;;;5.72;1.38;;;;;;;;;;5020684;28;20485;-75
2022/04/10 13:42:46;;;;;;;4.63;1.23;;;;;;;;;;5019622;28;20037;-75
2022/04/10 13:45:12;;;;;;;6.80;1.50;;;;;;;;;;5015918;28;20033;-75
2022/04/10 13:47:40;;;;;;;5.45;1.10;;;;;;;;;;5019657;28;21922;-75
2022/04/10 13:50:06;;;;;;;7.07;1.67;;;;;;;;;;5020806;28;20199;-75
2022/04/10 13:52:34;;;;;;;7.07;1.20;;;;;;;;;;5018798;28;20059;-74
2022/04/10 13:55:00;;;;;;;9.48;1.40;;;;;;;;;;5020288;28;20102;-74
2022/04/10 13:57:26;;;;;;;6.38;1.77;;;;;;;;;;5018540;28;20514;-74
2022/04/10 13:59:51;;;;;;;6.15;1.40;;;;;;;;;;5047819;28;20029;-74
2022/04/10 14:02:17;;;;;;;4.82;1.35;;;;;;;;;;5017344;28;20168;-74
2022/04/10 14:04:45;;;;;;;9.05;1.40;;;;;;;;;;5018555;28;20876;-75
2022/04/10 14:07:11;;;;;;;6.30;1.52;;;;;;;;;;5017540;28;20219;-75
2022/04/10 14:09:37;;;;;;;7.38;1.20;;;;;;;;;;5020327;28;20409;-73
2022/04/10 14:12:03;;;;;;;6.93;1.33;;;;;;;;;;5017755;28;20201;-73
2022/04/10 14:14:29;;;;;;;9.40;1.60;;;;;;;;;;5017660;28;20037;-76
2022/04/10 14:16:59;;;;;;;7.90;1.40;;;;;;;;;;5017551;28;20026;-75
2022/04/10 14:19:24;;;;;;;7.57;1.38;;;;;;;;;;5031347;28;20094;-74
2022/04/10 14:21:51;;;;;;;7.50;1.40;;;;;;;;;;5021250;28;20383;-74
2022/04/10 14:24:17;;;;;;;6.38;1.67;;;;;;;;;;5015127;28;20029;-73
2022/04/10 14:26:42;;;;;;;5.18;1.13;;;;;;;;;;5017956;28;20167;-73
2022/04/10 14:29:08;;;;;;;7.78;1.48;;;;;;;;;;5017760;28;20629;-73
2022/04/10 14:31:34;;;;;;;7.70;1.30;;;;;;;;;;5017570;28;20350;-72
2022/04/10 14:34:04;;;;;;;8.90;1.52;;;;;;;;;;5018219;28;20179;-73
2022/04/10 14:36:29;;;;;;;7.63;1.50;;;;;;;;;;5032369;28;20053;-72
2022/04/10 14:38:56;;;;;;;8.18;1.60;;;;;;;;;;5017372;28;20119;-73
2022/04/10 14:41:22;;;;;;;10.63;1.52;;;;;;;;;;5020090;28;20061;-73